CCGS Samuel Risley — CG2960 — position and weather

sailwx.info

Track history (hours):
 
Tides and Currents Weather Stations Pressure Air Temp Water Temp Dewpoint Dewpoint Depression Visibility Wind Speed Wind Dir Waves Ship Positions

CCGS Samuel Risley (Canada)

Medium Navaids Tender - Light Icebreaker

Last reported at 2017-Oct-20 12:00 UTC. Time now 2017-Oct-20 12:55 UTC.
Position N 45°18' W 080°00'.

Length 69.73 m; beam 13.7 m; draft 5.2 m.

Type: SAR. MMSI: 316001890.

Wind from 120 at 1 knots

Barometer 1022.4 mb
Air temperature 8.7 ° C
Dewpoint 7.2 ° C

Date/timePositionNaut miles runAvg speedWind from/ knotsBaromVisibWave heightAir tempDewpointWater temp
2017-Oct-20 12:00N 45°18' W 080°00'0 0.0 120 / 11022.4 8.7 7.2
2017-Oct-20 11:00N 45°18' W 080°00'0 0.0 140 / 21022.0 9.4 7.1
2017-Oct-20 10:00N 45°18' W 080°00'0 0.0 150 / 31021.5 10.7 7.4
2017-Oct-20 09:00N 45°18' W 080°00'0 0.0 280 / 21020.7 12.4 6.4
2017-Oct-20 08:00N 45°18' W 080°00'0 0.0 310 / 41020.2 12.7 5.6
2017-Oct-20 07:00N 45°18' W 080°00'0 0.0 300 / 91019.9 13.3 5.2
2017-Oct-20 06:00N 45°18' W 080°00'0 0.0 300 / 141019.1 14.0 5.8
2017-Oct-20 05:00N 45°18' W 080°00'0 0.0 300 / 181018.5 14.7 7.2
2017-Oct-20 04:00N 45°18' W 080°00'0 0.0 290 / 201017.5 15.2 5.9
2017-Oct-20 03:00N 45°18' W 080°00'0 0.0 280 / 171017.1 15.0 6.7
2017-Oct-20 02:00N 45°18' W 080°00'0 0.0 280 / 161017.1 14.7 6.7
2017-Oct-20 01:00N 45°18' W 080°00'0 0.0 280 / 181016.3 14.7 6.8
2017-Oct-20 00:00N 45°18' W 080°00'0 0.0 280 / 181016.1 15.0 6.6
2017-Oct-19 23:00N 45°18' W 080°00'0 0.0 280 / 171015.8 15.2 7.0
2017-Oct-19 22:00N 45°18' W 080°00'0 0.0 280 / 141015.1 15.3 5.9
2017-Oct-19 21:00N 45°18' W 080°00'0 0.0 280 / 171014.8 15.2 5.5
2017-Oct-19 20:00N 45°18' W 080°00'0 0.0 280 / 181014.5 15.2 3.2
2017-Oct-19 19:00N 45°18' W 080°00'0 0.0 270 / 161014.1 15.3 4.4
2017-Oct-19 18:00N 45°18' W 080°00'0 0.0 280 / 181013.9 15.0 5.0
2017-Oct-19 17:00N 45°18' W 080°00'0 0.0 280 / 181014.3 14.9 2.7
2017-Oct-19 16:00N 45°18' W 080°00'0 0.0 270 / 161013.9 15.6 5.0
2017-Oct-19 15:00N 45°18' W 080°00'0 0.0 240 / 121013.0 15.411.4
2017-Oct-19 14:00N 45°18' W 080°00'0 0.0 240 / 131012.7 15.410.8
2017-Oct-19 13:00N 45°18' W 080°00'0 0.0 240 / 101012.3 15.110.7
2017-Oct-19 12:00N 45°18' W 080°00'0 0.0 220 / 91012.0 14.9 9.9
2017-Oct-19 11:00N 45°18' W 080°00'0 0.0 210 / 101011.9 14.9 9.4
2017-Oct-19 10:00N 45°18' W 080°00'0 0.0 210 / 91012.2 15.3 9.0
2017-Oct-19 09:00N 45°18' W 080°00'0 0.0 200 / 111012.6 15.7 8.6
2017-Oct-19 08:00N 45°18' W 080°00'0 0.0 210 / 121013.1 15.9 8.5
2017-Oct-19 07:00N 45°18' W 080°00'0 0.0 210 / 121014.1 16.0 8.0
2017-Oct-19 06:00N 45°18' W 080°00'0 0.0 220 / 121014.6 16.4 7.8
2017-Oct-19 05:00N 45°18' W 080°00'0 0.0 220 / 121015.1 16.3 7.5
2017-Oct-19 04:00N 45°18' W 080°00'0 0.0 190 / 81015.8 15.7 8.3
2017-Oct-19 03:00N 45°18' W 080°00'0 0.0 180 / 81016.2 15.6 9.0
2017-Oct-19 02:00N 45°18' W 080°00'0 0.0 180 / 101016.3 16.3 8.0
2017-Oct-19 01:00N 45°18' W 080°00'0 0.0 170 / 91016.4 15.8 8.5
2017-Oct-19 00:00N 45°18' W 080°00'0 0.0 170 / 51016.9 15.5 9.3
2017-Oct-18 23:00N 45°18' W 080°00'0 0.0 140 / 31017.4 16.2 9.3
2017-Oct-18 22:00N 45°18' W 080°00'0 0.0 180 / 41018.0 18.2 8.2
2017-Oct-18 21:00N 45°18' W 080°00'0 0.0 200 / 51018.7 18.7 8.6
2017-Oct-18 20:00N 45°18' W 080°00'0 0.0 210 / 71019.3 18.7 8.2
2017-Oct-18 19:00N 45°18' W 080°00'0 0.0 190 / 91019.7 18.1 8.5
2017-Oct-18 18:00N 45°18' W 080°00'0 0.0 180 / 81020.0 17.2 9.3
2017-Oct-18 17:00N 45°18' W 080°00'0 0.0 200 / 71020.9 16.5 9.8
2017-Oct-18 16:00N 45°18' W 080°00'0 0.0 210 / 81021.3 15.810.2
2017-Oct-18 15:00N 45°18' W 080°00'0 0.0 180 / 81021.5 15.110.4
2017-Oct-18 14:00N 45°18' W 080°00'0 0.0 170 / 81021.8 14.011.4
2017-Oct-18 13:00N 45°18' W 080°00'0 0.0 130 / 51022.0 11.210.6
2017-Oct-18 12:00N 45°18' W 080°00'0 0.0 130 / 51021.3 11.411.0
2017-Oct-18 11:00N 45°18' W 080°00'0 0.0 080 / 21021.3 10.110.0
2017-Oct-18 10:00N 45°18' W 080°00'0 0.0 090 / 21021.2 10.110.0
2017-Oct-18 09:00N 45°18' W 080°00'0 0.0 130 / 21020.8 11.611.4
2017-Oct-18 08:00N 45°18' W 080°00'0 0.0 090 / 11020.5 11.511.3
2017-Oct-18 07:00N 45°18' W 080°00'0 0.0 170 / 11020.3 12.111.7
2017-Oct-18 05:00N 45°18' W 080°00'0 0.0 140 / 31019.2 12.611.6
2017-Oct-18 04:00N 45°18' W 080°00'0 0.0 240 / 41018.7 14.112.2
2017-Oct-18 03:00N 45°18' W 080°00'0 0.0 280 / 81018.4 15.012.0
2017-Oct-18 02:00N 45°18' W 080°00'0 0.0 280 / 81018.1 15.111.9
2017-Oct-18 01:00N 45°18' W 080°00'0 0.0 260 / 71017.5 15.012.2
2017-Oct-18 00:00N 45°18' W 080°00'0 0.0 260 / 81016.9 15.111.7
2017-Oct-17 23:00N 45°18' W 080°00'0 0.0 250 / 81016.1 15.111.0
2017-Oct-17 22:00N 45°18' W 080°00'0 0.0 250 / 111016.1 15.510.4
2017-Oct-17 21:00N 45°18' W 080°00'0 0.0 270 / 151016.0 15.6 9.7
2017-Oct-17 20:00N 45°18' W 080°00'0 0.0 270 / 151015.6 15.7 9.5
2017-Oct-17 19:00N 45°18' W 080°00'0 0.0 260 / 151015.6 15.7 9.5
2017-Oct-17 18:00N 45°18' W 080°00'0 0.0 250 / 171015.9 15.9 8.2
2017-Oct-17 17:00N 45°18' W 080°00'0 0.0 230 / 141016.7 15.5 8.5
2017-Oct-17 16:00N 45°18' W 080°00'0 0.0 230 / 151017.1 14.7 8.4
2017-Oct-17 15:00N 45°18' W 080°00'0 0.0 210 / 141017.4 14.0 8.2
2017-Oct-17 14:00N 45°18' W 080°00'0 0.0 200 / 101018.1 12.9 8.1
2017-Oct-17 13:00N 45°18' W 080°00'0 0.0 200 / 81018.8 11.9 7.5
2017-Oct-17 12:00N 45°18' W 080°00'0 0.0 210 / 101018.8 11.8 7.1
2017-Oct-17 11:00N 45°18' W 080°00'0 0.0 220 / 91019.8 11.8 7.2
2017-Oct-17 10:00N 45°18' W 080°00'0 0.0 230 / 91020.0 11.5 6.8
2017-Oct-17 09:00N 45°18' W 080°00'0 0.0 230 / 111020.1 11.7 7.1
2017-Oct-17 08:00N 45°18' W 080°00'0 0.0 220 / 111020.6 11.6 6.8
2017-Oct-17 07:00N 45°18' W 080°00'0 0.0 150 / 71021.3 8.2 5.0
2017-Oct-17 06:00N 45°18' W 080°00'0 0.0 150 / 81021.7 7.6 4.5
2017-Oct-17 05:00N 45°18' W 080°00'0 0.0 160 / 71022.3 7.0 3.7
2017-Oct-17 04:00N 45°18' W 080°00'0 0.0 130 / 61022.8 5.7 2.4
2017-Oct-17 03:00N 45°18' W 080°00'0 0.0 130 / 51023.3 4.6 2.1
2017-Oct-17 02:00N 45°18' W 080°00'0 0.0 130 / 51023.5 4.8 1.4
2017-Oct-17 01:00N 45°18' W 080°00'0 0.0 120 / 51023.7 4.6 1.7
2017-Oct-17 00:00N 45°18' W 080°00'0 0.0 180 / 51024.0 6.8 2.0
2017-Oct-16 23:00N 45°18' W 080°00'0 0.0 210 / 31024.3 6.8 0.6
2017-Oct-16 22:00N 45°18' W 080°00'0 0.0 280 / 71024.3 7.6 0.4
2017-Oct-16 21:00N 45°18' W 080°00'0 0.0 280 / 101024.2 7.5-0.7
2017-Oct-16 20:00N 45°18' W 080°00'0 0.0 270 / 81024.1 7.3-0.9
2017-Oct-16 19:00N 45°18' W 080°00'0 0.0 280 / 61024.0 6.9-2.6
2017-Oct-16 18:00N 45°18' W 080°00'0 0.0 290 / 61024.3 6.1-2.9
2017-Oct-16 17:00N 45°18' W 080°00'0 0.0 290 / 61025.0 5.3-3.4
2017-Oct-16 16:00N 45°18' W 080°00'0 0.0 310 / 31024.8 4.8-3.6
2017-Oct-16 15:00N 45°18' W 080°00'0 0.0 350 / 61024.8 3.6-5.0
2017-Oct-16 14:00N 45°18' W 080°00'0 0.0 330 / 51024.8 2.8-2.6
2017-Oct-16 13:00N 45°18' W 080°00'0 0.0 340 / 61024.2 2.5-2.8
2017-Oct-16 12:00N 45°18' W 080°00'0 0.0 350 / 61023.4 2.2-2.1
2017-Oct-16 11:00N 45°18' W 080°00'0 0.0 360 / 51022.6 1.4-1.8
2017-Oct-16 10:00N 45°18' W 080°00'0 0.0 350 / 71022.0 1.8-1.4
2017-Oct-16 09:00N 45°18' W 080°00'0 0.0 330 / 71021.1 2.6-0.5
2017-Oct-16 08:00N 45°18' W 080°00'0 0.0 360 / 51020.6 2.4-0.1
2017-Oct-16 07:00N 45°18' W 080°00'0 0.0 340 / 71020.3 2.8 0.1
2017-Oct-16 06:00N 45°18' W 080°00'0 0.0 350 / 51019.5 2.7-0.0
2017-Oct-16 05:00N 45°18' W 080°00'0 0.0 350 / 91019.1 3.4 0.5
2017-Oct-16 04:00N 45°18' W 080°00'0 0.0 360 / 61018.2 3.9 1.0
2017-Oct-16 03:00N 45°18' W 080°00'0 0.0 340 / 91017.1 4.6 1.4
2017-Oct-16 02:00N 45°18' W 080°00'0 0.0 340 / 91015.4 5.1 2.0
2017-Oct-16 01:00N 45°18' W 080°00'0 0.0 350 / 91013.5 5.1 2.5
2017-Oct-16 00:00N 45°18' W 080°00'0 0.0 350 / 111011.3 5.0 3.3
2017-Oct-15 23:00N 45°18' W 080°00'0 0.0 340 / 121008.8 6.2 4.7
2017-Oct-15 22:00N 45°18' W 080°00'0 0.0 330 / 131005.8 6.8 5.0
2017-Oct-15 21:00N 45°18' W 080°00'0 0.0 340 / 101002.8 7.5 6.7
2017-Oct-15 20:00N 45°18' W 080°00'0 0.0 350 / 6999.2 10.0 8.8
2017-Oct-15 19:00N 45°18' W 080°00'0 0.0 340 / 3997.2 13.612.7
2017-Oct-15 18:00N 45°18' W 080°00'0 0.0 230 / 15996.7 19.018.2
2017-Oct-15 17:00N 45°18' W 080°00'0 0.0 230 / 15998.0 18.817.9
2017-Oct-15 16:00N 45°18' W 080°00'0 0.0 220 / 13998.7 20.117.4
2017-Oct-15 15:00N 45°18' W 080°00'0 0.0 210 / 11999.7 19.517.4
2017-Oct-15 14:00N 45°18' W 080°00'0 0.0 190 / 91000.6 18.616.8
2017-Oct-15 13:00N 45°18' W 080°00'0 0.0 170 / 141000.8 17.316.1
2017-Oct-15 12:00N 45°18' W 080°00'0 0.0 160 / 91002.0 16.415.7
2017-Oct-15 11:00N 45°18' W 080°00'0 0.0 150 / 111003.6 16.215.4
2017-Oct-15 10:00N 45°18' W 080°00'0 0.0 160 / 131004.9 16.015.4
2017-Oct-15 09:00N 45°18' W 080°00'0 0.0 150 / 131006.0 16.015.1
2017-Oct-15 07:00N 45°18' W 080°00'0 0.0 150 / 121010.1 15.715.0
2017-Oct-15 06:00N 45°18' W 080°00'0 0.0 140 / 81012.0 15.114.8
2017-Oct-15 05:00N 45°18' W 080°00'0 0.0 100 / 61014.2 14.014.0
2017-Oct-15 04:00N 45°18' W 080°00'0 0.0 100 / 51015.2 13.312.7
2017-Oct-15 03:00N 45°18' W 080°00'0 0.0 090 / 71017.1 11.811.4
2017-Oct-15 02:00N 45°18' W 080°00'0 0.0 040 / 11019.0 11.0 9.4
2017-Oct-15 01:00N 45°18' W 080°00'0 0.0 1019.5 13.0 8.3
2017-Oct-15 00:00N 45°18' W 080°00'0 0.0 060 / 11019.9 14.6 5.9
2017-Oct-14 23:00N 45°18' W 080°00'0 0.0 070 / 11020.2 15.2 7.7
2017-Oct-14 22:00N 45°18' W 080°00'0 0.0 010 / 11020.8 16.1 5.1
2017-Oct-14 21:00N 45°18' W 080°00'0 0.0 020 / 11021.5 17.0 3.6
2017-Oct-14 20:00N 45°18' W 080°00'0 0.0 360 / 21021.5 17.5 7.4
2017-Oct-14 19:00N 45°18' W 080°00'0 0.0 300 / 51022.0 17.0 9.7
2017-Oct-14 18:00N 45°18' W 080°00'0 0.0 300 / 61022.5 16.811.5
2017-Oct-14 17:00N 45°18' W 080°00'0 0.0 290 / 51022.9 16.411.7
2017-Oct-14 16:00N 45°18' W 080°00'0 0.0 020 / 11022.9 16.410.8
2017-Oct-14 15:00N 45°18' W 080°00'0 0.0 020 / 11023.1 15.911.3
2017-Oct-14 14:00N 45°18' W 080°00'0 0.0 010 / 31023.2 15.112.3
2017-Oct-14 13:00N 45°18' W 080°00'0 0.0 340 / 21023.0 14.913.2
2017-Oct-14 12:00N 45°18' W 080°00'0 0.0 320 / 31022.2 15.314.0
2017-Oct-14 11:00N 45°18' W 080°00'0 0.0 340 / 41021.5 15.514.2
2017-Oct-14 10:00N 45°18' W 080°00'0 0.0 290 / 71020.9 16.315.4
2017-Oct-14 09:00N 45°18' W 080°00'0 0.0 200 / 51020.7 15.814.5
2017-Oct-14 08:00N 45°18' W 080°00'0 0.0 190 / 51020.3 16.014.4
2017-Oct-14 07:00N 45°18' W 080°00'0 0.0 190 / 41020.4 15.914.6
2017-Oct-14 06:00N 45°18' W 080°00'0 0.0 170 / 51020.6 15.914.5
2017-Oct-14 05:00N 45°18' W 080°00'0 0.0 160 / 51020.4 15.514.4
2017-Oct-14 04:00N 45°18' W 080°00'0 0.0 120 / 51020.3 15.014.0
2017-Oct-14 03:00N 45°18' W 080°00'0 0.0 160 / 41020.8 15.514.3
2017-Oct-14 02:00N 45°18' W 080°00'0 0.0 170 / 31021.0 15.614.5
2017-Oct-14 01:00N 45°18' W 080°00'0 0.0 180 / 41020.6 15.714.6
2017-Oct-14 00:00N 45°18' W 080°00'0 0.0 180 / 31020.8 16.013.7
2017-Oct-13 23:00N 45°18' W 080°00'0 0.0 200 / 41020.4 16.113.9
2017-Oct-13 22:00N 45°18' W 080°00'0 0.0 230 / 41020.2 16.513.7
2017-Oct-13 21:00N 45°18' W 080°00'0 0.0 200 / 51020.0 16.213.5
2017-Oct-13 20:00N 45°18' W 080°00'0 0.0 240 / 81020.2 15.914.2
2017-Oct-13 19:00N 45°18' W 080°00'0 0.0 220 / 81020.0 16.614.3
2017-Oct-13 18:00N 45°18' W 080°00'0 0.0 230 / 71020.1 16.414.7
2017-Oct-13 17:00N 45°18' W 080°00'0 0.0 190 / 81020.5 15.614.4
2017-Oct-13 16:00N 45°18' W 080°00'0 0.0 170 / 101021.0 15.513.7
2017-Oct-13 15:00N 45°18' W 080°00'0 0.0 160 / 101021.5 15.313.4
2017-Oct-13 14:00N 45°18' W 080°00'0 0.0 160 / 101021.6 15.013.1
2017-Oct-13 13:00N 45°18' W 080°00'0 0.0 160 / 91021.7 14.712.9
2017-Oct-13 12:00N 45°18' W 080°00'0 0.0 150 / 81021.8 14.312.6
2017-Oct-13 11:00N 45°18' W 080°00'0 0.0 140 / 91022.2 14.012.2
2017-Oct-13 10:00N 45°18' W 080°00'0 0.0 130 / 101022.5 14.112.1
2017-Oct-13 09:00N 45°18' W 080°00'0 0.0 130 / 91022.9 14.011.6
2017-Oct-13 08:00N 45°18' W 080°00'0 0.0 120 / 81023.0 13.911.0
2017-Oct-13 07:00N 45°18' W 080°00'0 0.0 130 / 101023.2 14.110.7
2017-Oct-13 06:00N 45°18' W 080°00'0 0.0 120 / 81023.3 14.0 9.9
2017-Oct-13 05:00N 45°18' W 080°00'0 0.0 120 / 91023.7 14.1 9.5
2017-Oct-13 04:00N 45°18' W 080°00'0 0.0 120 / 91024.1 14.3 9.7
2017-Oct-13 03:00N 45°18' W 080°00'0 0.0 120 / 91024.4 14.110.0
2017-Oct-13 02:00N 45°18' W 080°00'0 0.0 130 / 101024.7 14.2 9.6
2017-Oct-13 01:00N 45°18' W 080°00'0 0.0 130 / 121025.0 14.8 8.9
2017-Oct-13 00:00N 45°18' W 080°00'0 0.0 140 / 91025.1 15.4 9.5
2017-Oct-12 23:00N 45°18' W 080°00'0 0.0 120 / 61025.1 15.8 9.3
2017-Oct-12 22:00N 45°18' W 080°00'0 0.0 130 / 71025.0 16.1 9.2
2017-Oct-12 21:00N 45°18' W 080°00'0 0.0 120 / 81025.1 16.3 9.2
2017-Oct-12 20:00N 45°18' W 080°00'0 0.0 130 / 141025.2 17.0 9.6
2017-Oct-12 19:00N 45°18' W 080°00'0 0.0 110 / 91025.3 17.3 8.6
2017-Oct-12 18:00N 45°18' W 080°00'0 0.0 120 / 101026.4 16.5 7.4
2017-Oct-12 17:00N 45°18' W 080°00'0 0.0 110 / 61027.4 15.2 4.1
2017-Oct-12 16:00N 45°18' W 080°00'0 0.0 110 / 71028.1 13.7 1.7
2017-Oct-12 15:00N 45°18' W 080°00'0 0.0 100 / 91028.7 11.2-0.3
2017-Oct-12 14:00N 45°18' W 080°00'0 0.0 100 / 51029.5 9.0 0.6
2017-Oct-12 13:00N 45°18' W 080°00'0 0.0 100 / 51029.4 6.9 0.9
2017-Oct-12 12:00N 45°18' W 080°00'0 0.0 100 / 21028.8 4.4 1.3
2017-Oct-12 11:00N 45°18' W 080°00'0 0.0 100 / 11028.9 4.5 1.6
2017-Oct-12 10:00N 45°18' W 080°00'0 0.0 070 / 21028.8 4.2 1.4
2017-Oct-12 09:00N 45°18' W 080°00'0 0.0 040 / 11028.6 3.9 1.6
2017-Oct-12 08:00N 45°18' W 080°00'0 0.0 040 / 11028.5 4.3 1.6
2017-Oct-12 07:00N 45°18' W 080°00'0 0.0 110 / 21028.4 5.1 1.2
2017-Oct-12 06:00N 45°18' W 080°00'0 0.0 080 / 11028.2 5.1 1.3
2017-Oct-12 05:00N 45°18' W 080°00'0 0.0 090 / 21028.1 5.7 1.7
2017-Oct-12 04:00N 45°18' W 080°00'0 0.0 070 / 11028.2 6.1 1.6
2017-Oct-12 03:00N 45°18' W 080°00'0 0.0 090 / 11027.6 7.0 1.5
2017-Oct-12 02:00N 45°18' W 080°00'0 0.0 080 / 31027.4 7.6 1.7
2017-Oct-12 01:00N 45°18' W 080°00'0 0.0 060 / 21027.6 8.2 1.8
2017-Oct-12 00:00N 45°18' W 080°00'0 0.0 050 / 21027.8 9.2 1.8
2017-Oct-11 23:00N 45°18' W 080°00'0 0.0 060 / 11027.7 9.8 1.8
2017-Oct-11 22:00N 45°18' W 080°00'0 0.0 030 / 11027.2 10.4 1.6
2017-Oct-11 21:00N 45°18' W 080°00'0 0.0 020 / 11027.2 10.8 1.6
2017-Oct-11 20:00N 45°18' W 080°00'0 0.0 070 / 21027.2 10.5 0.1
2017-Oct-11 19:00N 45°18' W 080°00'0 0.0 080 / 31026.8 10.1-0.0
2017-Oct-11 18:00N 45°18' W 080°00'0 0.0 070 / 31027.1 9.5-0.1
2017-Oct-11 17:00N 45°18' W 080°00'0 0.0 080 / 31027.8 9.1 0.1
2017-Oct-11 16:00N 45°18' W 080°00'0 0.0 100 / 61028.1 8.8 0.1
2017-Oct-11 15:00N 45°18' W 080°00'0 0.0 080 / 21028.0 8.5 0.8
2017-Oct-11 14:00N 45°18' W 080°00'0 0.0 060 / 11027.6 8.3 0.6
2017-Oct-11 13:00N 45°18' W 080°00'0 0.0 060 / 21027.0 8.1 1.6
2017-Oct-11 12:00N 45°18' W 080°00'0 0.0 080 / 11026.3 8.3 2.2
2017-Oct-11 11:00N 45°18' W 080°00'0 0.0 080 / 31025.4 8.4 1.6
2017-Oct-11 10:00N 45°18' W 080°00'0 0.0 040 / 21025.2 8.5 1.7
2017-Oct-11 09:00N 45°18' W 080°00'0 0.0 040 / 21025.4 8.8 2.2
2017-Oct-11 08:00N 45°18' W 080°00'0 0.0 030 / 31025.4 8.5 2.9
2017-Oct-11 07:00N 45°18' W 080°00'0 0.0 050 / 21025.8 8.6 3.3
2017-Oct-11 06:00N 45°18' W 080°00'0 0.0 040 / 21024.9 9.3 3.8
2017-Oct-11 05:00N 45°18' W 080°00'0 0.0 020 / 21025.1 9.8 4.1
2017-Oct-11 04:00N 45°18' W 080°00'0 0.0 030 / 31024.6 10.3 4.6
2017-Oct-11 03:00N 45°18' W 080°00'0 0.0 020 / 21024.2 10.5 5.7
2017-Oct-11 02:00N 45°18' W 080°00'0 0.0 020 / 21023.6 10.7 7.8
2017-Oct-11 01:00N 45°18' W 080°00'0 0.0 360 / 21023.5 12.0 8.3
2017-Oct-11 00:00N 45°18' W 080°00'0 0.0 320 / 41023.1 13.7 8.9
2017-Oct-10 23:00N 45°18' W 080°00'0 0.0 310 / 71022.5 14.6 8.7
2017-Oct-10 22:00N 45°18' W 080°00'0 0.0 290 / 121022.2 15.4 8.4
2017-Oct-10 21:00N 45°18' W 080°00'0 0.0 290 / 131022.0 15.5 7.3
2017-Oct-10 20:00N 45°18' W 080°00'0 0.0 280 / 121022.0 15.8 8.0
2017-Oct-10 19:00N 45°18' W 080°00'0 0.0 280 / 101021.8 16.0 9.2
2017-Oct-10 18:00N 45°18' W 080°00'0 0.0 280 / 101021.5 16.6 7.9
2017-Oct-10 17:00N 45°18' W 080°00'0 0.0 290 / 81021.7 15.9 9.3
2017-Oct-10 16:00N 45°18' W 080°00'0 0.0 290 / 41021.3 15.610.3
2017-Oct-10 15:00N 45°18' W 080°00'0 0.0 300 / 81021.0 15.211.0
2017-Oct-10 14:00N 45°18' W 080°00'0 0.0 330 / 61020.5 14.711.5
2017-Oct-10 13:00N 45°18' W 080°00'0 0.0 330 / 31020.2 14.713.0
2017-Oct-10 12:00N 45°18' W 080°00'   330 / 61018.9 15.214.5
Track history (hours):
 
Tides and Currents Weather Stations Pressure Air Temp Water Temp Dewpoint Dewpoint Depression Visibility Wind Speed Wind Dir Waves Ship Positions

CCGS Samuel Risley (Canada)

Medium Navaids Tender - Light Icebreaker

Last reported at 2017-Oct-20 12:00 UTC. Time now 2017-Oct-20 12:55 UTC.
Position N 45°18' W 080°00'.

Length 69.73 m; beam 13.7 m; draft 5.2 m.

Type: SAR. MMSI: 316001890.

Wind from 120 at 1 knots

Barometer 1022.4 mb
Air temperature 8.7 ° C
Dewpoint 7.2 ° C

Date/timePositionNaut miles runAvg speedWind from/ knotsBaromVisibWave heightAir tempDewpointWater temp
2017-Oct-20 12:00N 45°18' W 080°00'0 0.0 120 / 11022.4 8.7 7.2
2017-Oct-20 11:00N 45°18' W 080°00'0 0.0 140 / 21022.0 9.4 7.1
2017-Oct-20 10:00N 45°18' W 080°00'0 0.0 150 / 31021.5 10.7 7.4
2017-Oct-20 09:00N 45°18' W 080°00'0 0.0 280 / 21020.7 12.4 6.4
2017-Oct-20 08:00N 45°18' W 080°00'0 0.0 310 / 41020.2 12.7 5.6
2017-Oct-20 07:00N 45°18' W 080°00'0 0.0 300 / 91019.9 13.3 5.2
2017-Oct-20 06:00N 45°18' W 080°00'0 0.0 300 / 141019.1 14.0 5.8
2017-Oct-20 05:00N 45°18' W 080°00'0 0.0 300 / 181018.5 14.7 7.2
2017-Oct-20 04:00N 45°18' W 080°00'0 0.0 290 / 201017.5 15.2 5.9
2017-Oct-20 03:00N 45°18' W 080°00'0 0.0 280 / 171017.1 15.0 6.7
2017-Oct-20 02:00N 45°18' W 080°00'0 0.0 280 / 161017.1 14.7 6.7
2017-Oct-20 01:00N 45°18' W 080°00'0 0.0 280 / 181016.3 14.7 6.8
2017-Oct-20 00:00N 45°18' W 080°00'0 0.0 280 / 181016.1 15.0 6.6
2017-Oct-19 23:00N 45°18' W 080°00'0 0.0 280 / 171015.8 15.2 7.0
2017-Oct-19 22:00N 45°18' W 080°00'0 0.0 280 / 141015.1 15.3 5.9
2017-Oct-19 21:00N 45°18' W 080°00'0 0.0 280 / 171014.8 15.2 5.5
2017-Oct-19 20:00N 45°18' W 080°00'0 0.0 280 / 181014.5 15.2 3.2
2017-Oct-19 19:00N 45°18' W 080°00'0 0.0 270 / 161014.1 15.3 4.4
2017-Oct-19 18:00N 45°18' W 080°00'0 0.0 280 / 181013.9 15.0 5.0
2017-Oct-19 17:00N 45°18' W 080°00'0 0.0 280 / 181014.3 14.9 2.7
2017-Oct-19 16:00N 45°18' W 080°00'0 0.0 270 / 161013.9 15.6 5.0
2017-Oct-19 15:00N 45°18' W 080°00'0 0.0 240 / 121013.0 15.411.4
2017-Oct-19 14:00N 45°18' W 080°00'0 0.0 240 / 131012.7 15.410.8
2017-Oct-19 13:00N 45°18' W 080°00'0 0.0 240 / 101012.3 15.110.7
2017-Oct-19 12:00N 45°18' W 080°00'0 0.0 220 / 91012.0 14.9 9.9
2017-Oct-19 11:00N 45°18' W 080°00'0 0.0 210 / 101011.9 14.9 9.4
2017-Oct-19 10:00N 45°18' W 080°00'0 0.0 210 / 91012.2 15.3 9.0
2017-Oct-19 09:00N 45°18' W 080°00'0 0.0 200 / 111012.6 15.7 8.6
2017-Oct-19 08:00N 45°18' W 080°00'0 0.0 210 / 121013.1 15.9 8.5
2017-Oct-19 07:00N 45°18' W 080°00'0 0.0 210 / 121014.1 16.0 8.0
2017-Oct-19 06:00N 45°18' W 080°00'0 0.0 220 / 121014.6 16.4 7.8
2017-Oct-19 05:00N 45°18' W 080°00'0 0.0 220 / 121015.1 16.3 7.5
2017-Oct-19 04:00N 45°18' W 080°00'0 0.0 190 / 81015.8 15.7 8.3
2017-Oct-19 03:00N 45°18' W 080°00'0 0.0 180 / 81016.2 15.6 9.0
2017-Oct-19 02:00N 45°18' W 080°00'0 0.0 180 / 101016.3 16.3 8.0
2017-Oct-19 01:00N 45°18' W 080°00'0 0.0 170 / 91016.4 15.8 8.5
2017-Oct-19 00:00N 45°18' W 080°00'0 0.0 170 / 51016.9 15.5 9.3
2017-Oct-18 23:00N 45°18' W 080°00'0 0.0 140 / 31017.4 16.2 9.3
2017-Oct-18 22:00N 45°18' W 080°00'0 0.0 180 / 41018.0 18.2 8.2
2017-Oct-18 21:00N 45°18' W 080°00'0 0.0 200 / 51018.7 18.7 8.6
2017-Oct-18 20:00N 45°18' W 080°00'0 0.0 210 / 71019.3 18.7 8.2
2017-Oct-18 19:00N 45°18' W 080°00'0 0.0 190 / 91019.7 18.1 8.5
2017-Oct-18 18:00N 45°18' W 080°00'0 0.0 180 / 81020.0 17.2 9.3
2017-Oct-18 17:00N 45°18' W 080°00'0 0.0 200 / 71020.9 16.5 9.8
2017-Oct-18 16:00N 45°18' W 080°00'0 0.0 210 / 81021.3 15.810.2
2017-Oct-18 15:00N 45°18' W 080°00'0 0.0 180 / 81021.5 15.110.4
2017-Oct-18 14:00N 45°18' W 080°00'0 0.0 170 / 81021.8 14.011.4
2017-Oct-18 13:00N 45°18' W 080°00'0 0.0 130 / 51022.0 11.210.6
2017-Oct-18 12:00N 45°18' W 080°00'0 0.0 130 / 51021.3 11.411.0
2017-Oct-18 11:00N 45°18' W 080°00'0 0.0 080 / 21021.3 10.110.0
2017-Oct-18 10:00N 45°18' W 080°00'0 0.0 090 / 21021.2 10.110.0
2017-Oct-18 09:00N 45°18' W 080°00'0 0.0 130 / 21020.8 11.611.4
2017-Oct-18 08:00N 45°18' W 080°00'0 0.0 090 / 11020.5 11.511.3
2017-Oct-18 07:00N 45°18' W 080°00'0 0.0 170 / 11020.3 12.111.7
2017-Oct-18 05:00N 45°18' W 080°00'0 0.0 140 / 31019.2 12.611.6
2017-Oct-18 04:00N 45°18' W 080°00'0 0.0 240 / 41018.7 14.112.2
2017-Oct-18 03:00N 45°18' W 080°00'0 0.0 280 / 81018.4 15.012.0
2017-Oct-18 02:00N 45°18' W 080°00'0 0.0 280 / 81018.1 15.111.9
2017-Oct-18 01:00N 45°18' W 080°00'0 0.0 260 / 71017.5 15.012.2
2017-Oct-18 00:00N 45°18' W 080°00'0 0.0 260 / 81016.9 15.111.7
2017-Oct-17 23:00N 45°18' W 080°00'0 0.0 250 / 81016.1 15.111.0
2017-Oct-17 22:00N 45°18' W 080°00'0 0.0 250 / 111016.1 15.510.4
2017-Oct-17 21:00N 45°18' W 080°00'0 0.0 270 / 151016.0 15.6 9.7
2017-Oct-17 20:00N 45°18' W 080°00'0 0.0 270 / 151015.6 15.7 9.5
2017-Oct-17 19:00N 45°18' W 080°00'0 0.0 260 / 151015.6 15.7 9.5
2017-Oct-17 18:00N 45°18' W 080°00'0 0.0 250 / 171015.9 15.9 8.2
2017-Oct-17 17:00N 45°18' W 080°00'0 0.0 230 / 141016.7 15.5 8.5
2017-Oct-17 16:00N 45°18' W 080°00'0 0.0 230 / 151017.1 14.7 8.4
2017-Oct-17 15:00N 45°18' W 080°00'0 0.0 210 / 141017.4 14.0 8.2
2017-Oct-17 14:00N 45°18' W 080°00'0 0.0 200 / 101018.1 12.9 8.1
2017-Oct-17 13:00N 45°18' W 080°00'0 0.0 200 / 81018.8 11.9 7.5
2017-Oct-17 12:00N 45°18' W 080°00'0 0.0 210 / 101018.8 11.8 7.1
2017-Oct-17 11:00N 45°18' W 080°00'0 0.0 220 / 91019.8 11.8 7.2
2017-Oct-17 10:00N 45°18' W 080°00'0 0.0 230 / 91020.0 11.5 6.8
2017-Oct-17 09:00N 45°18' W 080°00'0 0.0 230 / 111020.1 11.7 7.1
2017-Oct-17 08:00N 45°18' W 080°00'0 0.0 220 / 111020.6 11.6 6.8
2017-Oct-17 07:00N 45°18' W 080°00'0 0.0 150 / 71021.3 8.2 5.0
2017-Oct-17 06:00N 45°18' W 080°00'0 0.0 150 / 81021.7 7.6 4.5
2017-Oct-17 05:00N 45°18' W 080°00'0 0.0 160 / 71022.3 7.0 3.7
2017-Oct-17 04:00N 45°18' W 080°00'0 0.0 130 / 61022.8 5.7 2.4
2017-Oct-17 03:00N 45°18' W 080°00'0 0.0 130 / 51023.3 4.6 2.1
2017-Oct-17 02:00N 45°18' W 080°00'0 0.0 130 / 51023.5 4.8 1.4
2017-Oct-17 01:00N 45°18' W 080°00'0 0.0 120 / 51023.7 4.6 1.7
2017-Oct-17 00:00N 45°18' W 080°00'0 0.0 180 / 51024.0 6.8 2.0
2017-Oct-16 23:00N 45°18' W 080°00'0 0.0 210 / 31024.3 6.8 0.6
2017-Oct-16 22:00N 45°18' W 080°00'0 0.0 280 / 71024.3 7.6 0.4
2017-Oct-16 21:00N 45°18' W 080°00'0 0.0 280 / 101024.2 7.5-0.7
2017-Oct-16 20:00N 45°18' W 080°00'0 0.0 270 / 81024.1 7.3-0.9
2017-Oct-16 19:00N 45°18' W 080°00'0 0.0 280 / 61024.0 6.9-2.6
2017-Oct-16 18:00N 45°18' W 080°00'0 0.0 290 / 61024.3 6.1-2.9
2017-Oct-16 17:00N 45°18' W 080°00'0 0.0 290 / 61025.0 5.3-3.4
2017-Oct-16 16:00N 45°18' W 080°00'0 0.0 310 / 31024.8 4.8-3.6
2017-Oct-16 15:00N 45°18' W 080°00'0 0.0 350 / 61024.8 3.6-5.0
2017-Oct-16 14:00N 45°18' W 080°00'0 0.0 330 / 51024.8 2.8-2.6
2017-Oct-16 13:00N 45°18' W 080°00'0 0.0 340 / 61024.2 2.5-2.8
2017-Oct-16 12:00N 45°18' W 080°00'0 0.0 350 / 61023.4 2.2-2.1
2017-Oct-16 11:00N 45°18' W 080°00'0 0.0 360 / 51022.6 1.4-1.8
2017-Oct-16 10:00N 45°18' W 080°00'0 0.0 350 / 71022.0 1.8-1.4
2017-Oct-16 09:00N 45°18' W 080°00'0 0.0 330 / 71021.1 2.6-0.5
2017-Oct-16 08:00N 45°18' W 080°00'0 0.0 360 / 51020.6 2.4-0.1
2017-Oct-16 07:00N 45°18' W 080°00'0 0.0 340 / 71020.3 2.8 0.1
2017-Oct-16 06:00N 45°18' W 080°00'0 0.0 350 / 51019.5 2.7-0.0
2017-Oct-16 05:00N 45°18' W 080°00'0 0.0 350 / 91019.1 3.4 0.5
2017-Oct-16 04:00N 45°18' W 080°00'0 0.0 360 / 61018.2 3.9 1.0
2017-Oct-16 03:00N 45°18' W 080°00'0 0.0 340 / 91017.1 4.6 1.4
2017-Oct-16 02:00N 45°18' W 080°00'0 0.0 340 / 91015.4 5.1 2.0
2017-Oct-16 01:00N 45°18' W 080°00'0 0.0 350 / 91013.5 5.1 2.5
2017-Oct-16 00:00N 45°18' W 080°00'0 0.0 350 / 111011.3 5.0 3.3
2017-Oct-15 23:00N 45°18' W 080°00'0 0.0 340 / 121008.8 6.2 4.7
2017-Oct-15 22:00N 45°18' W 080°00'0 0.0 330 / 131005.8 6.8 5.0
2017-Oct-15 21:00N 45°18' W 080°00'0 0.0 340 / 101002.8 7.5 6.7
2017-Oct-15 20:00N 45°18' W 080°00'0 0.0 350 / 6999.2 10.0 8.8
2017-Oct-15 19:00N 45°18' W 080°00'0 0.0 340 / 3997.2 13.612.7
2017-Oct-15 18:00N 45°18' W 080°00'0 0.0 230 / 15996.7 19.018.2
2017-Oct-15 17:00N 45°18' W 080°00'0 0.0 230 / 15998.0 18.817.9
2017-Oct-15 16:00N 45°18' W 080°00'0 0.0 220 / 13998.7 20.117.4
2017-Oct-15 15:00N 45°18' W 080°00'0 0.0 210 / 11999.7 19.517.4
2017-Oct-15 14:00N 45°18' W 080°00'0 0.0 190 / 91000.6 18.616.8
2017-Oct-15 13:00N 45°18' W 080°00'0 0.0 170 / 141000.8 17.316.1
2017-Oct-15 12:00N 45°18' W 080°00'0 0.0 160 / 91002.0 16.415.7
2017-Oct-15 11:00N 45°18' W 080°00'0 0.0 150 / 111003.6 16.215.4
2017-Oct-15 10:00N 45°18' W 080°00'0 0.0 160 / 131004.9 16.015.4
2017-Oct-15 09:00N 45°18' W 080°00'0 0.0 150 / 131006.0 16.015.1
2017-Oct-15 07:00N 45°18' W 080°00'0 0.0 150 / 121010.1 15.715.0
2017-Oct-15 06:00N 45°18' W 080°00'0 0.0 140 / 81012.0 15.114.8
2017-Oct-15 05:00N 45°18' W 080°00'0 0.0 100 / 61014.2 14.014.0
2017-Oct-15 04:00N 45°18' W 080°00'0 0.0 100 / 51015.2 13.312.7
2017-Oct-15 03:00N 45°18' W 080°00'0 0.0 090 / 71017.1 11.811.4
2017-Oct-15 02:00N 45°18' W 080°00'0 0.0 040 / 11019.0 11.0 9.4
2017-Oct-15 01:00N 45°18' W 080°00'0 0.0 1019.5 13.0 8.3
2017-Oct-15 00:00N 45°18' W 080°00'0 0.0 060 / 11019.9 14.6 5.9
2017-Oct-14 23:00N 45°18' W 080°00'0 0.0 070 / 11020.2 15.2 7.7
2017-Oct-14 22:00N 45°18' W 080°00'0 0.0 010 / 11020.8 16.1 5.1
2017-Oct-14 21:00N 45°18' W 080°00'0 0.0 020 / 11021.5 17.0 3.6
2017-Oct-14 20:00N 45°18' W 080°00'0 0.0 360 / 21021.5 17.5 7.4
2017-Oct-14 19:00N 45°18' W 080°00'0 0.0 300 / 51022.0 17.0 9.7
2017-Oct-14 18:00N 45°18' W 080°00'0 0.0 300 / 61022.5 16.811.5
2017-Oct-14 17:00N 45°18' W 080°00'0 0.0 290 / 51022.9 16.411.7
2017-Oct-14 16:00N 45°18' W 080°00'0 0.0 020 / 11022.9 16.410.8
2017-Oct-14 15:00N 45°18' W 080°00'0 0.0 020 / 11023.1 15.911.3
2017-Oct-14 14:00N 45°18' W 080°00'0 0.0 010 / 31023.2 15.112.3
2017-Oct-14 13:00N 45°18' W 080°00'0 0.0 340 / 21023.0 14.913.2
2017-Oct-14 12:00N 45°18' W 080°00'0 0.0 320 / 31022.2 15.314.0
2017-Oct-14 11:00N 45°18' W 080°00'0 0.0 340 / 41021.5 15.514.2
2017-Oct-14 10:00N 45°18' W 080°00'0 0.0 290 / 71020.9 16.315.4
2017-Oct-14 09:00N 45°18' W 080°00'0 0.0 200 / 51020.7 15.814.5
2017-Oct-14 08:00N 45°18' W 080°00'0 0.0 190 / 51020.3 16.014.4
2017-Oct-14 07:00N 45°18' W 080°00'0 0.0 190 / 41020.4 15.914.6
2017-Oct-14 06:00N 45°18' W 080°00'0 0.0 170 / 51020.6 15.914.5
2017-Oct-14 05:00N 45°18' W 080°00'0 0.0 160 / 51020.4 15.514.4
2017-Oct-14 04:00N 45°18' W 080°00'0 0.0 120 / 51020.3 15.014.0
2017-Oct-14 03:00N 45°18' W 080°00'0 0.0 160 / 41020.8 15.514.3
2017-Oct-14 02:00N 45°18' W 080°00'0 0.0 170 / 31021.0 15.614.5
2017-Oct-14 01:00N 45°18' W 080°00'0 0.0 180 / 41020.6 15.714.6
2017-Oct-14 00:00N 45°18' W 080°00'0 0.0 180 / 31020.8 16.013.7
2017-Oct-13 23:00N 45°18' W 080°00'0 0.0 200 / 41020.4 16.113.9
2017-Oct-13 22:00N 45°18' W 080°00'0 0.0 230 / 41020.2 16.513.7
2017-Oct-13 21:00N 45°18' W 080°00'0 0.0 200 / 51020.0 16.213.5
2017-Oct-13 20:00N 45°18' W 080°00'0 0.0 240 / 81020.2 15.914.2
2017-Oct-13 19:00N 45°18' W 080°00'0 0.0 220 / 81020.0 16.614.3
2017-Oct-13 18:00N 45°18' W 080°00'0 0.0 230 / 71020.1 16.414.7
2017-Oct-13 17:00N 45°18' W 080°00'0 0.0 190 / 81020.5 15.614.4
2017-Oct-13 16:00N 45°18' W 080°00'0 0.0 170 / 101021.0 15.513.7
2017-Oct-13 15:00N 45°18' W 080°00'0 0.0 160 / 101021.5 15.313.4
2017-Oct-13 14:00N 45°18' W 080°00'0 0.0 160 / 101021.6 15.013.1
2017-Oct-13 13:00N 45°18' W 080°00'0 0.0 160 / 91021.7 14.712.9
2017-Oct-13 12:00N 45°18' W 080°00'0 0.0 150 / 81021.8 14.312.6
2017-Oct-13 11:00N 45°18' W 080°00'0 0.0 140 / 91022.2 14.012.2
2017-Oct-13 10:00N 45°18' W 080°00'0 0.0 130 / 101022.5 14.112.1
2017-Oct-13 09:00N 45°18' W 080°00'0 0.0 130 / 91022.9 14.011.6
2017-Oct-13 08:00N 45°18' W 080°00'0 0.0 120 / 81023.0 13.911.0
2017-Oct-13 07:00N 45°18' W 080°00'0 0.0 130 / 101023.2 14.110.7
2017-Oct-13 06:00N 45°18' W 080°00'0 0.0 120 / 81023.3 14.0 9.9
2017-Oct-13 05:00N 45°18' W 080°00'0 0.0 120 / 91023.7 14.1 9.5
2017-Oct-13 04:00N 45°18' W 080°00'0 0.0 120 / 91024.1 14.3 9.7
2017-Oct-13 03:00N 45°18' W 080°00'0 0.0 120 / 91024.4 14.110.0
2017-Oct-13 02:00N 45°18' W 080°00'0 0.0 130 / 101024.7 14.2 9.6
2017-Oct-13 01:00N 45°18' W 080°00'0 0.0 130 / 121025.0 14.8 8.9
2017-Oct-13 00:00N 45°18' W 080°00'0 0.0 140 / 91025.1 15.4 9.5
2017-Oct-12 23:00N 45°18' W 080°00'0 0.0 120 / 61025.1 15.8 9.3
2017-Oct-12 22:00N 45°18' W 080°00'0 0.0 130 / 71025.0 16.1 9.2
2017-Oct-12 21:00N 45°18' W 080°00'0 0.0 120 / 81025.1 16.3 9.2
2017-Oct-12 20:00N 45°18' W 080°00'0 0.0 130 / 141025.2 17.0 9.6
2017-Oct-12 19:00N 45°18' W 080°00'0 0.0 110 / 91025.3 17.3 8.6
2017-Oct-12 18:00N 45°18' W 080°00'0 0.0 120 / 101026.4 16.5 7.4
2017-Oct-12 17:00N 45°18' W 080°00'0 0.0 110 / 61027.4 15.2 4.1
2017-Oct-12 16:00N 45°18' W 080°00'0 0.0 110 / 71028.1 13.7 1.7
2017-Oct-12 15:00N 45°18' W 080°00'0 0.0 100 / 91028.7 11.2-0.3
2017-Oct-12 14:00N 45°18' W 080°00'0 0.0 100 / 51029.5 9.0 0.6
2017-Oct-12 13:00N 45°18' W 080°00'0 0.0 100 / 51029.4 6.9 0.9
2017-Oct-12 12:00N 45°18' W 080°00'0 0.0 100 / 21028.8 4.4 1.3
2017-Oct-12 11:00N 45°18' W 080°00'0 0.0 100 / 11028.9 4.5 1.6
2017-Oct-12 10:00N 45°18' W 080°00'0 0.0 070 / 21028.8 4.2 1.4
2017-Oct-12 09:00N 45°18' W 080°00'0 0.0 040 / 11028.6 3.9 1.6
2017-Oct-12 08:00N 45°18' W 080°00'0 0.0 040 / 11028.5 4.3 1.6
2017-Oct-12 07:00N 45°18' W 080°00'0 0.0 110 / 21028.4 5.1 1.2
2017-Oct-12 06:00N 45°18' W 080°00'0 0.0 080 / 11028.2 5.1 1.3
2017-Oct-12 05:00N 45°18' W 080°00'0 0.0 090 / 21028.1 5.7 1.7
2017-Oct-12 04:00N 45°18' W 080°00'0 0.0 070 / 11028.2 6.1 1.6
2017-Oct-12 03:00N 45°18' W 080°00'0 0.0 090 / 11027.6 7.0 1.5
2017-Oct-12 02:00N 45°18' W 080°00'0 0.0 080 / 31027.4 7.6 1.7
2017-Oct-12 01:00N 45°18' W 080°00'0 0.0 060 / 21027.6 8.2 1.8
2017-Oct-12 00:00N 45°18' W 080°00'0 0.0 050 / 21027.8 9.2 1.8
2017-Oct-11 23:00N 45°18' W 080°00'0 0.0 060 / 11027.7 9.8 1.8
2017-Oct-11 22:00N 45°18' W 080°00'0 0.0 030 / 11027.2 10.4 1.6
2017-Oct-11 21:00N 45°18' W 080°00'0 0.0 020 / 11027.2 10.8 1.6
2017-Oct-11 20:00N 45°18' W 080°00'0 0.0 070 / 21027.2 10.5 0.1
2017-Oct-11 19:00N 45°18' W 080°00'0 0.0 080 / 31026.8 10.1-0.0
2017-Oct-11 18:00N 45°18' W 080°00'0 0.0 070 / 31027.1 9.5-0.1
2017-Oct-11 17:00N 45°18' W 080°00'0 0.0 080 / 31027.8 9.1 0.1
2017-Oct-11 16:00N 45°18' W 080°00'0 0.0 100 / 61028.1 8.8 0.1
2017-Oct-11 15:00N 45°18' W 080°00'0 0.0 080 / 21028.0 8.5 0.8
2017-Oct-11 14:00N 45°18' W 080°00'0 0.0 060 / 11027.6 8.3 0.6
2017-Oct-11 13:00N 45°18' W 080°00'0 0.0 060 / 21027.0 8.1 1.6
2017-Oct-11 12:00N 45°18' W 080°00'0 0.0 080 / 11026.3 8.3 2.2
2017-Oct-11 11:00N 45°18' W 080°00'0 0.0 080 / 31025.4 8.4 1.6
2017-Oct-11 10:00N 45°18' W 080°00'0 0.0 040 / 21025.2 8.5 1.7
2017-Oct-11 09:00N 45°18' W 080°00'0 0.0 040 / 21025.4 8.8 2.2
2017-Oct-11 08:00N 45°18' W 080°00'0 0.0 030 / 31025.4 8.5 2.9
2017-Oct-11 07:00N 45°18' W 080°00'0 0.0 050 / 21025.8 8.6 3.3
2017-Oct-11 06:00N 45°18' W 080°00'0 0.0 040 / 21024.9 9.3 3.8
2017-Oct-11 05:00N 45°18' W 080°00'0 0.0 020 / 21025.1 9.8 4.1
2017-Oct-11 04:00N 45°18' W 080°00'0 0.0 030 / 31024.6 10.3 4.6
2017-Oct-11 03:00N 45°18' W 080°00'0 0.0 020 / 21024.2 10.5 5.7
2017-Oct-11 02:00N 45°18' W 080°00'0 0.0 020 / 21023.6 10.7 7.8
2017-Oct-11 01:00N 45°18' W 080°00'0 0.0 360 / 21023.5 12.0 8.3
2017-Oct-11 00:00N 45°18' W 080°00'0 0.0 320 / 41023.1 13.7 8.9
2017-Oct-10 23:00N 45°18' W 080°00'0 0.0 310 / 71022.5 14.6 8.7
2017-Oct-10 22:00N 45°18' W 080°00'0 0.0 290 / 121022.2 15.4 8.4
2017-Oct-10 21:00N 45°18' W 080°00'0 0.0 290 / 131022.0 15.5 7.3
2017-Oct-10 20:00N 45°18' W 080°00'0 0.0 280 / 121022.0 15.8 8.0
2017-Oct-10 19:00N 45°18' W 080°00'0 0.0 280 / 101021.8 16.0 9.2
2017-Oct-10 18:00N 45°18' W 080°00'0 0.0 280 / 101021.5 16.6 7.9
2017-Oct-10 17:00N 45°18' W 080°00'0 0.0 290 / 81021.7 15.9 9.3
2017-Oct-10 16:00N 45°18' W 080°00'0 0.0 290 / 41021.3 15.610.3
2017-Oct-10 15:00N 45°18' W 080°00'0 0.0 300 / 81021.0 15.211.0
2017-Oct-10 14:00N 45°18' W 080°00'0 0.0 330 / 61020.5 14.711.5
2017-Oct-10 13:00N 45°18' W 080°00'0 0.0 330 / 31020.2 14.713.0
2017-Oct-10 12:00N 45°18' W 080°00'   330 / 61018.9 15.214.5

Dump ship's entire track history